Merlin — WDD6426 — position and weather

sailwx.info

Track history (hours):
 
Tides and Currents Weather Stations Pressure Air Temp Water Temp Dewpoint Dewpoint Depression Visibility Wind Speed Wind Dir Waves Ship Positions

Merlin

Owner: Merlin Marine Corp., San Diego, CA. More information available from US FCC via Universal Licensing System and Coast Guard Vessel Documentation Center.

Last reported at 2017-Nov-17 21:33 UTC. Time now 2017-Nov-24 18:20 UTC.
Position N 32°41' W 117°22'.

Type: SAR. MMSI: 367409000.

Date/timePositionNaut miles runAvg speedWind from/ knotsBaromVisibWave heightAir tempDewpointWater temp
2017-Nov-17 21:33N 32°41' W 117°22'111.6
2017-Nov-17 21:28N 32°42' W 117°23'612.2
2017-Nov-17 21:00N 32°45' W 117°29'1 2.7
2017-Nov-17 20:30N 32°44' W 117°28'2 3.6
2017-Nov-17 20:01N 32°43' W 117°26'2 3.7
2017-Nov-17 19:30N 32°43' W 117°28'3 5.0
2017-Nov-17 19:00N 32°45' W 117°30'3 6.9
2017-Nov-17 18:30N 32°46' W 117°26'5 9.1
2017-Nov-17 18:00N 32°43' W 117°22'2 4.6
2017-Nov-17 17:31N 32°42' W 117°20'2 4.0
2017-Nov-17 17:01N 32°42' W 117°17'0 0.7
2017-Nov-17 16:27N 32°42' W 117°17'1 1.8
2017-Nov-17 16:01N 32°41' W 117°17'3 1.2
2017-Nov-17 13:43N 32°42' W 117°14'4 0.3
2017-Nov-16 23:23N 32°38' W 117°15'410.6
2017-Nov-16 23:00N 32°42' W 117°18'2 4.1
2017-Nov-16 22:31N 32°41' W 117°20'1 2.3
2017-Nov-16 22:01N 32°41' W 117°21'5 9.3
2017-Nov-16 21:30N 32°41' W 117°27'5 9.8
2017-Nov-16 21:00N 32°43' W 117°32'2 3.7
2017-Nov-16 20:30N 32°45' W 117°30'3 7.0
2017-Nov-16 20:01N 32°46' W 117°27'3 5.5
2017-Nov-16 19:31N 32°44' W 117°29'3 5.7
2017-Nov-16 19:01N 32°45' W 117°32'0 0.7
2017-Nov-16 18:31N 32°45' W 117°32'1 1.9
2017-Nov-16 18:00N 32°45' W 117°31'4 8.8
2017-Nov-16 17:31N 32°42' W 117°26'4 8.0
2017-Nov-16 17:00N 32°43' W 117°31'3 5.8
2017-Nov-16 16:31N 32°42' W 117°28'611.2
2017-Nov-16 16:00N 32°40' W 117°22'611.0
2017-Nov-16 15:29N 32°37' W 117°16'7 3.4
2017-Nov-16 13:35N 32°43' W 117°13'0 0.0
2017-Nov-16 01:07N 32°43' W 117°13'4 7.3
2017-Nov-16 00:37N 32°40' W 117°14'3 9.0
2017-Nov-16 00:15N 32°40' W 117°17'311.4
2017-Nov-16 00:00N 32°42' W 117°20'611.6
2017-Nov-15 23:30N 32°45' W 117°26'2 3.3
2017-Nov-15 23:00N 32°45' W 117°28'2 3.9
2017-Nov-15 22:31N 32°43' W 117°26'1 2.1
2017-Nov-15 22:00N 32°44' W 117°25'0 0.2
2017-Nov-15 21:30N 32°44' W 117°25'1 2.1
2017-Nov-15 21:00N 32°44' W 117°27'1 1.5
2017-Nov-15 20:30N 32°45' W 117°27'4 7.5
2017-Nov-15 20:00N 32°46' W 117°31'1 2.0
2017-Nov-15 19:30N 32°46' W 117°30'5 9.4
2017-Nov-15 19:00N 32°43' W 117°26'0 0.5
2017-Nov-15 18:30N 32°43' W 117°26'2 4.2
2017-Nov-15 18:00N 32°41' W 117°27'0 0.4
2017-Nov-15 17:30N 32°41' W 117°27'1 2.3
2017-Nov-15 17:00N 32°41' W 117°28'1 2.0
2017-Nov-15 16:30N 32°41' W 117°27'5 9.0
2017-Nov-15 16:00N 32°40' W 117°22'7 0.5
2017-Nov-15 00:41N 32°41' W 117°14'3 7.7
2017-Nov-15 00:15N 32°38' W 117°16'310.8
2017-Nov-14 23:59N 32°39' W 117°19'510.7
2017-Nov-14 23:28N 32°42' W 117°24'511.4
2017-Nov-14 23:00N 32°45' W 117°30'3 6.6
2017-Nov-14 22:30N 32°46' W 117°26'2 3.2
2017-Nov-14 22:00N 32°45' W 117°25'1 2.5
2017-Nov-14 21:30N 32°46' W 117°26'1 1.6
2017-Nov-14 21:00N 32°46' W 117°25'2 4.8
2017-Nov-14 20:30N 32°46' W 117°28'3 5.3
2017-Nov-14 20:00N 32°45' W 117°31'3 5.9
2017-Nov-14 19:30N 32°46' W 117°27'3 5.0
2017-Nov-14 19:00N 32°45' W 117°30'2 3.4
2017-Nov-14 18:30N 32°45' W 117°28'3 6.0
2017-Nov-14 18:00N 32°43' W 117°25'0 0.6
2017-Nov-14 17:30N 32°43' W 117°25'1 2.7
2017-Nov-14 17:00N 32°43' W 117°27'4 7.6
2017-Nov-14 16:30N 32°42' W 117°23'510.4
2017-Nov-14 16:00N 32°40' W 117°17'3 5.5
2017-Nov-14 15:28N 32°40' W 117°14'2 1.0
2017-Nov-14 13:44N 32°42' W 117°14'  
Track history (hours):
 
Tides and Currents Weather Stations Pressure Air Temp Water Temp Dewpoint Dewpoint Depression Visibility Wind Speed Wind Dir Waves Ship Positions

Merlin

Owner: Merlin Marine Corp., San Diego, CA. More information available from US FCC via Universal Licensing System and Coast Guard Vessel Documentation Center.

Last reported at 2017-Nov-17 21:33 UTC. Time now 2017-Nov-24 18:20 UTC.
Position N 32°41' W 117°22'.

Type: SAR. MMSI: 367409000.

Date/timePositionNaut miles runAvg speedWind from/ knotsBaromVisibWave heightAir tempDewpointWater temp
2017-Nov-17 21:33N 32°41' W 117°22'111.6
2017-Nov-17 21:28N 32°42' W 117°23'612.2
2017-Nov-17 21:00N 32°45' W 117°29'1 2.7
2017-Nov-17 20:30N 32°44' W 117°28'2 3.6
2017-Nov-17 20:01N 32°43' W 117°26'2 3.7
2017-Nov-17 19:30N 32°43' W 117°28'3 5.0
2017-Nov-17 19:00N 32°45' W 117°30'3 6.9
2017-Nov-17 18:30N 32°46' W 117°26'5 9.1
2017-Nov-17 18:00N 32°43' W 117°22'2 4.6
2017-Nov-17 17:31N 32°42' W 117°20'2 4.0
2017-Nov-17 17:01N 32°42' W 117°17'0 0.7
2017-Nov-17 16:27N 32°42' W 117°17'1 1.8
2017-Nov-17 16:01N 32°41' W 117°17'3 1.2
2017-Nov-17 13:43N 32°42' W 117°14'4 0.3
2017-Nov-16 23:23N 32°38' W 117°15'410.6
2017-Nov-16 23:00N 32°42' W 117°18'2 4.1
2017-Nov-16 22:31N 32°41' W 117°20'1 2.3
2017-Nov-16 22:01N 32°41' W 117°21'5 9.3
2017-Nov-16 21:30N 32°41' W 117°27'5 9.8
2017-Nov-16 21:00N 32°43' W 117°32'2 3.7
2017-Nov-16 20:30N 32°45' W 117°30'3 7.0
2017-Nov-16 20:01N 32°46' W 117°27'3 5.5
2017-Nov-16 19:31N 32°44' W 117°29'3 5.7
2017-Nov-16 19:01N 32°45' W 117°32'0 0.7
2017-Nov-16 18:31N 32°45' W 117°32'1 1.9
2017-Nov-16 18:00N 32°45' W 117°31'4 8.8
2017-Nov-16 17:31N 32°42' W 117°26'4 8.0
2017-Nov-16 17:00N 32°43' W 117°31'3 5.8
2017-Nov-16 16:31N 32°42' W 117°28'611.2
2017-Nov-16 16:00N 32°40' W 117°22'611.0
2017-Nov-16 15:29N 32°37' W 117°16'7 3.4
2017-Nov-16 13:35N 32°43' W 117°13'0 0.0
2017-Nov-16 01:07N 32°43' W 117°13'4 7.3
2017-Nov-16 00:37N 32°40' W 117°14'3 9.0
2017-Nov-16 00:15N 32°40' W 117°17'311.4
2017-Nov-16 00:00N 32°42' W 117°20'611.6
2017-Nov-15 23:30N 32°45' W 117°26'2 3.3
2017-Nov-15 23:00N 32°45' W 117°28'2 3.9
2017-Nov-15 22:31N 32°43' W 117°26'1 2.1
2017-Nov-15 22:00N 32°44' W 117°25'0 0.2
2017-Nov-15 21:30N 32°44' W 117°25'1 2.1
2017-Nov-15 21:00N 32°44' W 117°27'1 1.5
2017-Nov-15 20:30N 32°45' W 117°27'4 7.5
2017-Nov-15 20:00N 32°46' W 117°31'1 2.0
2017-Nov-15 19:30N 32°46' W 117°30'5 9.4
2017-Nov-15 19:00N 32°43' W 117°26'0 0.5
2017-Nov-15 18:30N 32°43' W 117°26'2 4.2
2017-Nov-15 18:00N 32°41' W 117°27'0 0.4
2017-Nov-15 17:30N 32°41' W 117°27'1 2.3
2017-Nov-15 17:00N 32°41' W 117°28'1 2.0
2017-Nov-15 16:30N 32°41' W 117°27'5 9.0
2017-Nov-15 16:00N 32°40' W 117°22'7 0.5
2017-Nov-15 00:41N 32°41' W 117°14'3 7.7
2017-Nov-15 00:15N 32°38' W 117°16'310.8
2017-Nov-14 23:59N 32°39' W 117°19'510.7
2017-Nov-14 23:28N 32°42' W 117°24'511.4
2017-Nov-14 23:00N 32°45' W 117°30'3 6.6
2017-Nov-14 22:30N 32°46' W 117°26'2 3.2
2017-Nov-14 22:00N 32°45' W 117°25'1 2.5
2017-Nov-14 21:30N 32°46' W 117°26'1 1.6
2017-Nov-14 21:00N 32°46' W 117°25'2 4.8
2017-Nov-14 20:30N 32°46' W 117°28'3 5.3
2017-Nov-14 20:00N 32°45' W 117°31'3 5.9
2017-Nov-14 19:30N 32°46' W 117°27'3 5.0
2017-Nov-14 19:00N 32°45' W 117°30'2 3.4
2017-Nov-14 18:30N 32°45' W 117°28'3 6.0
2017-Nov-14 18:00N 32°43' W 117°25'0 0.6
2017-Nov-14 17:30N 32°43' W 117°25'1 2.7
2017-Nov-14 17:00N 32°43' W 117°27'4 7.6
2017-Nov-14 16:30N 32°42' W 117°23'510.4
2017-Nov-14 16:00N 32°40' W 117°17'3 5.5
2017-Nov-14 15:28N 32°40' W 117°14'2 1.0
2017-Nov-14 13:44N 32°42' W 117°14'  

Dump ship's entire track history